sensor_id;sensor_type;location;lat;lon;timestamp;P1;durP1;ratioP1;P2;durP2;ratioP2
76795;SDS011;65745;50.278;18.192;2023-06-14T00:01:37;3.70;;;3.40;;
76795;SDS011;65745;50.278;18.192;2023-06-14T00:04:09;5.20;;;3.80;;
76795;SDS011;65745;50.278;18.192;2023-06-14T00:06:42;4.20;;;3.80;;
76795;SDS011;65745;50.278;18.192;2023-06-14T00:09:15;5.30;;;4.40;;
76795;SDS011;65745;50.278;18.192;2023-06-14T00:11:47;4.50;;;4.00;;
76795;SDS011;65745;50.278;18.192;2023-06-14T00:14:19;5.50;;;4.30;;
76795;SDS011;65745;50.278;18.192;2023-06-14T00:16:51;6.20;;;4.40;;
76795;SDS011;65745;50.278;18.192;2023-06-14T00:19:28;5.50;;;4.40;;
76795;SDS011;65745;50.278;18.192;2023-06-14T00:22:04;6.90;;;4.70;;
76795;SDS011;65745;50.278;18.192;2023-06-14T00:24:36;6.80;;;5.00;;
76795;SDS011;65745;50.278;18.192;2023-06-14T00:27:08;6.50;;;5.10;;
76795;SDS011;65745;50.278;18.192;2023-06-14T00:29:41;7.00;;;4.60;;
76795;SDS011;65745;50.278;18.192;2023-06-14T00:32:13;7.60;;;5.20;;
76795;SDS011;65745;50.278;18.192;2023-06-14T00:34:45;6.50;;;5.10;;
76795;SDS011;65745;50.278;18.192;2023-06-14T00:37:17;6.30;;;4.70;;
76795;SDS011;65745;50.278;18.192;2023-06-14T00:39:50;6.60;;;5.00;;
76795;SDS011;65745;50.278;18.192;2023-06-14T00:42:25;8.10;;;6.40;;
76795;SDS011;65745;50.278;18.192;2023-06-14T00:44:59;6.50;;;5.00;;
76795;SDS011;65745;50.278;18.192;2023-06-14T00:47:31;7.80;;;5.50;;
76795;SDS011;65745;50.278;18.192;2023-06-14T00:50:05;6.70;;;5.60;;
76795;SDS011;65745;50.278;18.192;2023-06-14T00:52:39;6.80;;;5.50;;
76795;SDS011;65745;50.278;18.192;2023-06-14T00:55:11;8.70;;;4.90;;
76795;SDS011;65745;50.278;18.192;2023-06-14T00:57:44;6.80;;;5.10;;
76795;SDS011;65745;50.278;18.192;2023-06-14T01:00:17;8.00;;;4.90;;
76795;SDS011;65745;50.278;18.192;2023-06-14T01:02:49;5.80;;;4.40;;
76795;SDS011;65745;50.278;18.192;2023-06-14T01:05:23;6.10;;;4.50;;
76795;SDS011;65745;50.278;18.192;2023-06-14T01:07:59;6.50;;;4.60;;
76795;SDS011;65745;50.278;18.192;2023-06-14T01:10:47;6.90;;;5.40;;
76795;SDS011;65745;50.278;18.192;2023-06-14T01:13:28;5.30;;;4.80;;
76795;SDS011;65745;50.278;18.192;2023-06-14T01:16:03;5.40;;;4.90;;
76795;SDS011;65745;50.278;18.192;2023-06-14T01:18:38;6.60;;;4.20;;
76795;SDS011;65745;50.278;18.192;2023-06-14T01:21:21;4.90;;;4.40;;
76795;SDS011;65745;50.278;18.192;2023-06-14T01:23:54;7.20;;;4.80;;
76795;SDS011;65745;50.278;18.192;2023-06-14T01:26:28;5.70;;;4.40;;
76795;SDS011;65745;50.278;18.192;2023-06-14T01:29:01;6.50;;;4.70;;
76795;SDS011;65745;50.278;18.192;2023-06-14T01:31:34;6.80;;;4.50;;
76795;SDS011;65745;50.278;18.192;2023-06-14T01:34:11;6.00;;;4.90;;
76795;SDS011;65745;50.278;18.192;2023-06-14T01:36:43;6.30;;;5.30;;
76795;SDS011;65745;50.278;18.192;2023-06-14T01:39:17;6.00;;;4.10;;
76795;SDS011;65745;50.278;18.192;2023-06-14T01:41:50;6.00;;;5.10;;
76795;SDS011;65745;50.278;18.192;2023-06-14T01:44:23;5.70;;;5.10;;
76795;SDS011;65745;50.278;18.192;2023-06-14T01:46:55;8.70;;;5.70;;
76795;SDS011;65745;50.278;18.192;2023-06-14T01:49:28;5.70;;;4.60;;
76795;SDS011;65745;50.278;18.192;2023-06-14T01:52:03;8.20;;;5.20;;
76795;SDS011;65745;50.278;18.192;2023-06-14T01:57:11;7.00;;;4.90;;
76795;SDS011;65745;50.278;18.192;2023-06-14T01:59:44;5.20;;;4.50;;
76795;SDS011;65745;50.278;18.192;2023-06-14T02:02:17;6.20;;;4.70;;
76795;SDS011;65745;50.278;18.192;2023-06-14T02:04:49;6.80;;;4.70;;
76795;SDS011;65745;50.278;18.192;2023-06-14T02:07:21;7.20;;;4.60;;
76795;SDS011;65745;50.278;18.192;2023-06-14T02:09:54;6.10;;;4.80;;
76795;SDS011;65745;50.278;18.192;2023-06-14T02:12:26;6.50;;;5.20;;
76795;SDS011;65745;50.278;18.192;2023-06-14T02:14:59;6.50;;;5.20;;
76795;SDS011;65745;50.278;18.192;2023-06-14T02:17:32;5.60;;;4.90;;
76795;SDS011;65745;50.278;18.192;2023-06-14T02:20:08;6.80;;;5.40;;
76795;SDS011;65745;50.278;18.192;2023-06-14T02:22:42;10.00;;;6.10;;
76795;SDS011;65745;50.278;18.192;2023-06-14T02:25:14;10.60;;;6.40;;
76795;SDS011;65745;50.278;18.192;2023-06-14T02:27:46;7.50;;;6.20;;
76795;SDS011;65745;50.278;18.192;2023-06-14T02:30:19;8.60;;;6.30;;
76795;SDS011;65745;50.278;18.192;2023-06-14T02:32:51;9.50;;;6.50;;
76795;SDS011;65745;50.278;18.192;2023-06-14T02:35:23;9.90;;;6.20;;
76795;SDS011;65745;50.278;18.192;2023-06-14T02:37:57;8.60;;;6.40;;
76795;SDS011;65745;50.278;18.192;2023-06-14T02:40:29;9.30;;;6.60;;
76795;SDS011;65745;50.278;18.192;2023-06-14T02:43:01;7.60;;;5.80;;
76795;SDS011;65745;50.278;18.192;2023-06-14T02:45:34;8.80;;;6.40;;
76795;SDS011;65745;50.278;18.192;2023-06-14T02:48:06;8.50;;;6.70;;
76795;SDS011;65745;50.278;18.192;2023-06-14T02:50:39;11.20;;;7.00;;
76795;SDS011;65745;50.278;18.192;2023-06-14T02:53:11;9.40;;;6.30;;
76795;SDS011;65745;50.278;18.192;2023-06-14T02:55:45;9.80;;;6.60;;
76795;SDS011;65745;50.278;18.192;2023-06-14T02:58:17;8.50;;;7.00;;
76795;SDS011;65745;50.278;18.192;2023-06-14T03:00:49;11.20;;;7.40;;
76795;SDS011;65745;50.278;18.192;2023-06-14T03:03:23;9.00;;;5.90;;
76795;SDS011;65745;50.278;18.192;2023-06-14T03:05:56;9.60;;;6.90;;
76795;SDS011;65745;50.278;18.192;2023-06-14T03:08:35;8.50;;;6.60;;
76795;SDS011;65745;50.278;18.192;2023-06-14T03:11:12;10.50;;;7.60;;
76795;SDS011;65745;50.278;18.192;2023-06-14T03:13:46;8.80;;;7.30;;
76795;SDS011;65745;50.278;18.192;2023-06-14T03:16:20;9.70;;;6.70;;
76795;SDS011;65745;50.278;18.192;2023-06-14T03:18:54;8.40;;;6.00;;
76795;SDS011;65745;50.278;18.192;2023-06-14T03:21:28;10.90;;;8.70;;
76795;SDS011;65745;50.278;18.192;2023-06-14T03:24:02;9.60;;;6.90;;
76795;SDS011;65745;50.278;18.192;2023-06-14T03:26:35;9.40;;;5.70;;
76795;SDS011;65745;50.278;18.192;2023-06-14T03:29:07;8.90;;;6.60;;
76795;SDS011;65745;50.278;18.192;2023-06-14T03:31:41;9.20;;;6.80;;
76795;SDS011;65745;50.278;18.192;2023-06-14T03:34:35;9.50;;;6.70;;
76795;SDS011;65745;50.278;18.192;2023-06-14T03:37:10;11.70;;;7.60;;
76795;SDS011;65745;50.278;18.192;2023-06-14T03:39:42;9.20;;;6.60;;
76795;SDS011;65745;50.278;18.192;2023-06-14T03:42:21;11.70;;;7.60;;
76795;SDS011;65745;50.278;18.192;2023-06-14T03:44:55;9.70;;;6.90;;
76795;SDS011;65745;50.278;18.192;2023-06-14T03:47:28;9.80;;;6.30;;
76795;SDS011;65745;50.278;18.192;2023-06-14T03:50:00;10.60;;;6.90;;
76795;SDS011;65745;50.278;18.192;2023-06-14T03:52:33;9.40;;;7.20;;
76795;SDS011;65745;50.278;18.192;2023-06-14T03:55:06;9.00;;;7.30;;
76795;SDS011;65745;50.278;18.192;2023-06-14T03:57:42;10.90;;;7.30;;
76795;SDS011;65745;50.278;18.192;2023-06-14T04:00:16;10.20;;;7.90;;
76795;SDS011;65745;50.278;18.192;2023-06-14T04:02:49;9.90;;;7.30;;
76795;SDS011;65745;50.278;18.192;2023-06-14T04:05:22;8.70;;;6.50;;
76795;SDS011;65745;50.278;18.192;2023-06-14T04:07:57;8.20;;;6.30;;
76795;SDS011;65745;50.278;18.192;2023-06-14T04:10:33;11.30;;;8.00;;
76795;SDS011;65745;50.278;18.192;2023-06-14T04:13:05;11.60;;;8.10;;
76795;SDS011;65745;50.278;18.192;2023-06-14T04:15:37;9.90;;;6.80;;
76795;SDS011;65745;50.278;18.192;2023-06-14T04:18:16;9.60;;;6.40;;
76795;SDS011;65745;50.278;18.192;2023-06-14T04:20:52;11.20;;;6.80;;
76795;SDS011;65745;50.278;18.192;2023-06-14T04:23:25;10.00;;;7.50;;
76795;SDS011;65745;50.278;18.192;2023-06-14T04:25:59;11.10;;;6.90;;
76795;SDS011;65745;50.278;18.192;2023-06-14T04:28:32;9.80;;;6.70;;
76795;SDS011;65745;50.278;18.192;2023-06-14T04:31:07;11.40;;;7.40;;
76795;SDS011;65745;50.278;18.192;2023-06-14T04:33:40;11.30;;;7.30;;
76795;SDS011;65745;50.278;18.192;2023-06-14T04:36:21;11.00;;;8.60;;
76795;SDS011;65745;50.278;18.192;2023-06-14T04:38:54;13.30;;;7.80;;
76795;SDS011;65745;50.278;18.192;2023-06-14T04:41:29;13.60;;;8.60;;
76795;SDS011;65745;50.278;18.192;2023-06-14T04:44:02;12.20;;;8.30;;
76795;SDS011;65745;50.278;18.192;2023-06-14T04:46:40;13.40;;;8.90;;
76795;SDS011;65745;50.278;18.192;2023-06-14T04:49:23;12.20;;;8.60;;
76795;SDS011;65745;50.278;18.192;2023-06-14T04:51:56;11.80;;;8.00;;
76795;SDS011;65745;50.278;18.192;2023-06-14T04:54:42;9.00;;;7.60;;
76795;SDS011;65745;50.278;18.192;2023-06-14T04:57:19;11.10;;;7.60;;
76795;SDS011;65745;50.278;18.192;2023-06-14T04:59:52;11.90;;;8.40;;
76795;SDS011;65745;50.278;18.192;2023-06-14T05:02:27;13.40;;;9.20;;
76795;SDS011;65745;50.278;18.192;2023-06-14T05:05:01;11.00;;;7.80;;
76795;SDS011;65745;50.278;18.192;2023-06-14T05:07:36;12.00;;;8.50;;
76795;SDS011;65745;50.278;18.192;2023-06-14T05:10:11;9.80;;;8.40;;
76795;SDS011;65745;50.278;18.192;2023-06-14T05:12:43;11.50;;;7.60;;
76795;SDS011;65745;50.278;18.192;2023-06-14T05:15:19;11.50;;;7.30;;
76795;SDS011;65745;50.278;18.192;2023-06-14T05:20:25;11.70;;;7.70;;
76795;SDS011;65745;50.278;18.192;2023-06-14T05:22:57;10.80;;;8.30;;
76795;SDS011;65745;50.278;18.192;2023-06-14T05:25:30;12.10;;;8.50;;
76795;SDS011;65745;50.278;18.192;2023-06-14T05:28:02;11.90;;;9.00;;
76795;SDS011;65745;50.278;18.192;2023-06-14T05:30:35;10.60;;;8.00;;
76795;SDS011;65745;50.278;18.192;2023-06-14T05:33:08;10.20;;;7.70;;
76795;SDS011;65745;50.278;18.192;2023-06-14T05:35:40;13.10;;;9.20;;
76795;SDS011;65745;50.278;18.192;2023-06-14T05:38:12;10.40;;;7.60;;
76795;SDS011;65745;50.278;18.192;2023-06-14T05:40:45;11.30;;;7.90;;
76795;SDS011;65745;50.278;18.192;2023-06-14T05:43:17;11.90;;;8.70;;
76795;SDS011;65745;50.278;18.192;2023-06-14T05:45:50;12.20;;;8.30;;
76795;SDS011;65745;50.278;18.192;2023-06-14T05:48:23;11.60;;;8.70;;
76795;SDS011;65745;50.278;18.192;2023-06-14T05:50:56;12.50;;;8.40;;
76795;SDS011;65745;50.278;18.192;2023-06-14T05:53:29;13.00;;;9.20;;
76795;SDS011;65745;50.278;18.192;2023-06-14T05:56:01;11.70;;;8.90;;
76795;SDS011;65745;50.278;18.192;2023-06-14T05:58:33;12.50;;;9.50;;
76795;SDS011;65745;50.278;18.192;2023-06-14T06:01:06;11.90;;;8.50;;
76795;SDS011;65745;50.278;18.192;2023-06-14T06:03:38;12.70;;;8.70;;
76795;SDS011;65745;50.278;18.192;2023-06-14T06:06:15;12.40;;;9.20;;
76795;SDS011;65745;50.278;18.192;2023-06-14T06:08:48;12.50;;;9.70;;
76795;SDS011;65745;50.278;18.192;2023-06-14T06:11:21;12.30;;;9.30;;
76795;SDS011;65745;50.278;18.192;2023-06-14T06:13:53;13.10;;;8.80;;
76795;SDS011;65745;50.278;18.192;2023-06-14T06:16:25;13.30;;;9.00;;
76795;SDS011;65745;50.278;18.192;2023-06-14T06:18:57;15.00;;;9.70;;
76795;SDS011;65745;50.278;18.192;2023-06-14T06:21:30;12.80;;;8.90;;
76795;SDS011;65745;50.278;18.192;2023-06-14T06:24:02;13.70;;;8.70;;
76795;SDS011;65745;50.278;18.192;2023-06-14T06:26:35;11.40;;;8.40;;
76795;SDS011;65745;50.278;18.192;2023-06-14T06:29:09;12.90;;;9.10;;
76795;SDS011;65745;50.278;18.192;2023-06-14T06:31:41;13.30;;;9.40;;
76795;SDS011;65745;50.278;18.192;2023-06-14T06:34:15;11.60;;;8.60;;
76795;SDS011;65745;50.278;18.192;2023-06-14T06:36:47;11.80;;;9.10;;
76795;SDS011;65745;50.278;18.192;2023-06-14T06:39:19;14.70;;;9.40;;
76795;SDS011;65745;50.278;18.192;2023-06-14T06:41:52;11.00;;;7.60;;
76795;SDS011;65745;50.278;18.192;2023-06-14T06:44:28;12.00;;;8.20;;
76795;SDS011;65745;50.278;18.192;2023-06-14T06:47:03;12.40;;;8.20;;
76795;SDS011;65745;50.278;18.192;2023-06-14T06:49:35;12.00;;;8.30;;
76795;SDS011;65745;50.278;18.192;2023-06-14T06:52:08;12.70;;;7.90;;
76795;SDS011;65745;50.278;18.192;2023-06-14T06:54:40;11.00;;;7.40;;
76795;SDS011;65745;50.278;18.192;2023-06-14T06:57:12;13.20;;;9.10;;
76795;SDS011;65745;50.278;18.192;2023-06-14T06:59:45;10.40;;;7.90;;
76795;SDS011;65745;50.278;18.192;2023-06-14T07:02:18;12.40;;;8.50;;
76795;SDS011;65745;50.278;18.192;2023-06-14T07:04:51;10.80;;;8.40;;
76795;SDS011;65745;50.278;18.192;2023-06-14T07:07:23;13.20;;;8.80;;
76795;SDS011;65745;50.278;18.192;2023-06-14T07:09:55;12.20;;;7.70;;
76795;SDS011;65745;50.278;18.192;2023-06-14T07:12:29;10.50;;;8.10;;
76795;SDS011;65745;50.278;18.192;2023-06-14T07:15:04;11.70;;;8.60;;
76795;SDS011;65745;50.278;18.192;2023-06-14T07:17:38;12.10;;;8.40;;
76795;SDS011;65745;50.278;18.192;2023-06-14T07:20:13;12.60;;;9.20;;
76795;SDS011;65745;50.278;18.192;2023-06-14T07:22:45;12.80;;;8.20;;
76795;SDS011;65745;50.278;18.192;2023-06-14T07:25:17;12.60;;;8.60;;
76795;SDS011;65745;50.278;18.192;2023-06-14T07:27:51;12.40;;;8.60;;
76795;SDS011;65745;50.278;18.192;2023-06-14T07:30:24;15.00;;;9.80;;
76795;SDS011;65745;50.278;18.192;2023-06-14T07:32:59;15.30;;;11.10;;
76795;SDS011;65745;50.278;18.192;2023-06-14T07:35:32;17.00;;;11.20;;
76795;SDS011;65745;50.278;18.192;2023-06-14T07:38:04;15.40;;;10.40;;
76795;SDS011;65745;50.278;18.192;2023-06-14T07:40:37;14.90;;;10.50;;
76795;SDS011;65745;50.278;18.192;2023-06-14T07:43:09;13.70;;;10.20;;
76795;SDS011;65745;50.278;18.192;2023-06-14T07:45:42;12.70;;;10.20;;
76795;SDS011;65745;50.278;18.192;2023-06-14T07:48:34;14.90;;;10.20;;
76795;SDS011;65745;50.278;18.192;2023-06-14T07:51:06;13.90;;;10.40;;
76795;SDS011;65745;50.278;18.192;2023-06-14T07:53:39;15.50;;;11.20;;
76795;SDS011;65745;50.278;18.192;2023-06-14T07:56:12;14.90;;;11.20;;
76795;SDS011;65745;50.278;18.192;2023-06-14T07:58:45;15.70;;;11.60;;
76795;SDS011;65745;50.278;18.192;2023-06-14T08:01:17;15.70;;;11.40;;
76795;SDS011;65745;50.278;18.192;2023-06-14T08:03:49;16.70;;;11.00;;
76795;SDS011;65745;50.278;18.192;2023-06-14T08:06:22;18.80;;;12.20;;
76795;SDS011;65745;50.278;18.192;2023-06-14T08:08:54;18.50;;;11.30;;
76795;SDS011;65745;50.278;18.192;2023-06-14T08:11:26;19.40;;;13.00;;
76795;SDS011;65745;50.278;18.192;2023-06-14T08:13:59;18.30;;;11.50;;
76795;SDS011;65745;50.278;18.192;2023-06-14T08:16:31;20.10;;;11.60;;
76795;SDS011;65745;50.278;18.192;2023-06-14T08:19:04;18.00;;;12.00;;
76795;SDS011;65745;50.278;18.192;2023-06-14T08:21:38;14.30;;;10.60;;
76795;SDS011;65745;50.278;18.192;2023-06-14T08:24:10;13.20;;;10.70;;
76795;SDS011;65745;50.278;18.192;2023-06-14T08:26:43;16.60;;;11.60;;
76795;SDS011;65745;50.278;18.192;2023-06-14T08:29:15;17.70;;;13.30;;
76795;SDS011;65745;50.278;18.192;2023-06-14T08:31:48;17.10;;;12.50;;
76795;SDS011;65745;50.278;18.192;2023-06-14T08:34:20;13.40;;;11.40;;
76795;SDS011;65745;50.278;18.192;2023-06-14T08:36:53;16.00;;;12.70;;
76795;SDS011;65745;50.278;18.192;2023-06-14T08:39:25;16.90;;;12.20;;
76795;SDS011;65745;50.278;18.192;2023-06-14T08:41:58;15.90;;;12.40;;
76795;SDS011;65745;50.278;18.192;2023-06-14T08:44:43;17.00;;;12.90;;
76795;SDS011;65745;50.278;18.192;2023-06-14T08:47:15;15.60;;;12.00;;
76795;SDS011;65745;50.278;18.192;2023-06-14T08:49:48;17.60;;;12.20;;
76795;SDS011;65745;50.278;18.192;2023-06-14T08:52:21;15.60;;;13.10;;
76795;SDS011;65745;50.278;18.192;2023-06-14T08:54:59;14.50;;;12.50;;
76795;SDS011;65745;50.278;18.192;2023-06-14T08:57:31;14.30;;;12.50;;
76795;SDS011;65745;50.278;18.192;2023-06-14T09:00:07;14.80;;;11.50;;
76795;SDS011;65745;50.278;18.192;2023-06-14T09:02:43;14.60;;;13.00;;
76795;SDS011;65745;50.278;18.192;2023-06-14T09:05:16;14.40;;;11.20;;
76795;SDS011;65745;50.278;18.192;2023-06-14T09:07:48;14.10;;;12.10;;
76795;SDS011;65745;50.278;18.192;2023-06-14T09:10:22;16.50;;;12.80;;
76795;SDS011;65745;50.278;18.192;2023-06-14T09:12:56;13.80;;;11.60;;
76795;SDS011;65745;50.278;18.192;2023-06-14T09:15:28;12.40;;;10.70;;
76795;SDS011;65745;50.278;18.192;2023-06-14T09:18:02;14.50;;;11.90;;
76795;SDS011;65745;50.278;18.192;2023-06-14T09:20:35;13.00;;;11.00;;
76795;SDS011;65745;50.278;18.192;2023-06-14T09:23:08;12.70;;;10.80;;
76795;SDS011;65745;50.278;18.192;2023-06-14T09:25:43;12.30;;;9.80;;
76795;SDS011;65745;50.278;18.192;2023-06-14T09:28:16;11.70;;;10.40;;
76795;SDS011;65745;50.278;18.192;2023-06-14T09:30:49;13.60;;;11.30;;
76795;SDS011;65745;50.278;18.192;2023-06-14T09:33:21;14.50;;;11.30;;
76795;SDS011;65745;50.278;18.192;2023-06-14T09:35:56;11.90;;;10.00;;
76795;SDS011;65745;50.278;18.192;2023-06-14T09:38:28;10.90;;;9.70;;
76795;SDS011;65745;50.278;18.192;2023-06-14T09:41:01;10.30;;;9.20;;
76795;SDS011;65745;50.278;18.192;2023-06-14T09:43:35;13.70;;;10.70;;
76795;SDS011;65745;50.278;18.192;2023-06-14T09:46:08;10.50;;;9.00;;
76795;SDS011;65745;50.278;18.192;2023-06-14T09:48:41;10.40;;;8.70;;
76795;SDS011;65745;50.278;18.192;2023-06-14T09:51:14;10.70;;;9.10;;
76795;SDS011;65745;50.278;18.192;2023-06-14T09:53:49;10.50;;;8.20;;
76795;SDS011;65745;50.278;18.192;2023-06-14T09:56:23;11.50;;;8.20;;
76795;SDS011;65745;50.278;18.192;2023-06-14T09:58:58;9.70;;;8.70;;
76795;SDS011;65745;50.278;18.192;2023-06-14T10:01:42;10.10;;;8.30;;
76795;SDS011;65745;50.278;18.192;2023-06-14T10:04:15;9.50;;;8.50;;
76795;SDS011;65745;50.278;18.192;2023-06-14T10:06:52;9.50;;;8.20;;
76795;SDS011;65745;50.278;18.192;2023-06-14T10:09:25;9.50;;;8.40;;
76795;SDS011;65745;50.278;18.192;2023-06-14T10:14:34;8.60;;;7.70;;
76795;SDS011;65745;50.278;18.192;2023-06-14T10:17:07;8.60;;;7.70;;
76795;SDS011;65745;50.278;18.192;2023-06-14T10:19:48;32.40;;;12.90;;
76795;SDS011;65745;50.278;18.192;2023-06-14T10:22:32;8.50;;;7.20;;
76795;SDS011;65745;50.278;18.192;2023-06-14T10:25:13;8.80;;;7.80;;
76795;SDS011;65745;50.278;18.192;2023-06-14T10:28:05;8.70;;;7.30;;
76795;SDS011;65745;50.278;18.192;2023-06-14T10:31:03;9.00;;;7.60;;
76795;SDS011;65745;50.278;18.192;2023-06-14T10:33:39;9.40;;;7.40;;
76795;SDS011;65745;50.278;18.192;2023-06-14T10:36:29;7.80;;;7.00;;
76795;SDS011;65745;50.278;18.192;2023-06-14T10:39:06;8.10;;;7.20;;
76795;SDS011;65745;50.278;18.192;2023-06-14T10:41:41;11.10;;;8.90;;
76795;SDS011;65745;50.278;18.192;2023-06-14T10:44:39;7.90;;;7.10;;
76795;SDS011;65745;50.278;18.192;2023-06-14T10:50:04;3.20;;;2.60;;
76795;SDS011;65745;50.278;18.192;2023-06-14T10:52:39;3.50;;;2.80;;
76795;SDS011;65745;50.278;18.192;2023-06-14T10:55:15;3.50;;;3.10;;
76795;SDS011;65745;50.278;18.192;2023-06-14T10:57:49;4.20;;;2.90;;
76795;SDS011;65745;50.278;18.192;2023-06-14T11:00:25;4.10;;;3.40;;
76795;SDS011;65745;50.278;18.192;2023-06-14T11:06:14;6.50;;;5.40;;
76795;SDS011;65745;50.278;18.192;2023-06-14T11:12:05;7.80;;;7.00;;
76795;SDS011;65745;50.278;18.192;2023-06-14T11:14:40;7.50;;;6.80;;
76795;SDS011;65745;50.278;18.192;2023-06-14T11:17:15;8.80;;;7.00;;
76795;SDS011;65745;50.278;18.192;2023-06-14T11:19:48;8.20;;;7.40;;
76795;SDS011;65745;50.278;18.192;2023-06-14T11:22:20;7.10;;;6.20;;
76795;SDS011;65745;50.278;18.192;2023-06-14T11:24:52;7.30;;;6.40;;
76795;SDS011;65745;50.278;18.192;2023-06-14T11:27:28;6.30;;;5.70;;
76795;SDS011;65745;50.278;18.192;2023-06-14T11:30:03;5.40;;;4.80;;
76795;SDS011;65745;50.278;18.192;2023-06-14T11:32:37;4.70;;;3.40;;
76795;SDS011;65745;50.278;18.192;2023-06-14T11:35:10;3.80;;;3.20;;
76795;SDS011;65745;50.278;18.192;2023-06-14T11:37:44;3.90;;;2.90;;
76795;SDS011;65745;50.278;18.192;2023-06-14T11:40:17;3.00;;;2.70;;
76795;SDS011;65745;50.278;18.192;2023-06-14T11:42:49;2.90;;;2.60;;
76795;SDS011;65745;50.278;18.192;2023-06-14T11:45:28;3.60;;;2.40;;
76795;SDS011;65745;50.278;18.192;2023-06-14T11:48:01;3.40;;;2.50;;
76795;SDS011;65745;50.278;18.192;2023-06-14T11:50:37;2.70;;;2.20;;
76795;SDS011;65745;50.278;18.192;2023-06-14T11:53:10;3.50;;;3.10;;
76795;SDS011;65745;50.278;18.192;2023-06-14T11:55:42;4.00;;;3.60;;
76795;SDS011;65745;50.278;18.192;2023-06-14T11:58:16;4.80;;;4.30;;
76795;SDS011;65745;50.278;18.192;2023-06-14T12:00:50;4.10;;;3.60;;
76795;SDS011;65745;50.278;18.192;2023-06-14T12:03:26;4.70;;;4.20;;
76795;SDS011;65745;50.278;18.192;2023-06-14T12:06:06;5.60;;;4.60;;
76795;SDS011;65745;50.278;18.192;2023-06-14T12:08:39;5.20;;;4.70;;
76795;SDS011;65745;50.278;18.192;2023-06-14T12:11:14;5.10;;;4.60;;
76795;SDS011;65745;50.278;18.192;2023-06-14T12:13:46;6.20;;;5.00;;
76795;SDS011;65745;50.278;18.192;2023-06-14T12:16:21;5.80;;;4.80;;
76795;SDS011;65745;50.278;18.192;2023-06-14T12:19:07;5.10;;;4.60;;
76795;SDS011;65745;50.278;18.192;2023-06-14T12:24:17;4.80;;;4.40;;
76795;SDS011;65745;50.278;18.192;2023-06-14T12:26:51;5.50;;;4.70;;
76795;SDS011;65745;50.278;18.192;2023-06-14T12:29:23;4.60;;;4.20;;
76795;SDS011;65745;50.278;18.192;2023-06-14T12:31:55;4.80;;;4.40;;
76795;SDS011;65745;50.278;18.192;2023-06-14T12:34:28;5.00;;;4.50;;
76795;SDS011;65745;50.278;18.192;2023-06-14T12:37:01;5.00;;;4.30;;
76795;SDS011;65745;50.278;18.192;2023-06-14T12:39:33;5.10;;;4.10;;
76795;SDS011;65745;50.278;18.192;2023-06-14T12:42:08;4.40;;;4.00;;
76795;SDS011;65745;50.278;18.192;2023-06-14T12:44:42;4.40;;;4.00;;
76795;SDS011;65745;50.278;18.192;2023-06-14T12:47:14;4.80;;;4.40;;
76795;SDS011;65745;50.278;18.192;2023-06-14T12:49:46;5.60;;;5.10;;
76795;SDS011;65745;50.278;18.192;2023-06-14T12:52:19;5.10;;;4.10;;
76795;SDS011;65745;50.278;18.192;2023-06-14T12:54:52;4.90;;;4.00;;
76795;SDS011;65745;50.278;18.192;2023-06-14T12:57:24;5.80;;;4.10;;
76795;SDS011;65745;50.278;18.192;2023-06-14T12:59:56;5.00;;;3.90;;
76795;SDS011;65745;50.278;18.192;2023-06-14T13:02:30;4.30;;;3.80;;
76795;SDS011;65745;50.278;18.192;2023-06-14T13:05:02;5.10;;;4.10;;
76795;SDS011;65745;50.278;18.192;2023-06-14T13:07:35;3.90;;;3.50;;
76795;SDS011;65745;50.278;18.192;2023-06-14T13:10:07;5.10;;;3.80;;
76795;SDS011;65745;50.278;18.192;2023-06-14T13:12:40;3.90;;;3.60;;
76795;SDS011;65745;50.278;18.192;2023-06-14T13:15:12;3.60;;;3.30;;
76795;SDS011;65745;50.278;18.192;2023-06-14T13:17:44;3.90;;;3.50;;
76795;SDS011;65745;50.278;18.192;2023-06-14T13:20:18;4.00;;;3.60;;
76795;SDS011;65745;50.278;18.192;2023-06-14T13:22:51;3.50;;;3.20;;
76795;SDS011;65745;50.278;18.192;2023-06-14T13:25:23;4.70;;;3.70;;
76795;SDS011;65745;50.278;18.192;2023-06-14T13:27:55;3.30;;;3.00;;
76795;SDS011;65745;50.278;18.192;2023-06-14T13:30:28;3.90;;;3.40;;
76795;SDS011;65745;50.278;18.192;2023-06-14T13:33:00;4.10;;;3.60;;
76795;SDS011;65745;50.278;18.192;2023-06-14T13:35:34;3.90;;;3.60;;
76795;SDS011;65745;50.278;18.192;2023-06-14T13:38:06;3.80;;;3.40;;
76795;SDS011;65745;50.278;18.192;2023-06-14T13:40:38;4.20;;;3.80;;
76795;SDS011;65745;50.278;18.192;2023-06-14T13:43:11;4.00;;;3.60;;
76795;SDS011;65745;50.278;18.192;2023-06-14T13:45:44;4.30;;;3.90;;
76795;SDS011;65745;50.278;18.192;2023-06-14T13:48:16;4.90;;;4.50;;
76795;SDS011;65745;50.278;18.192;2023-06-14T13:50:48;5.30;;;4.80;;
76795;SDS011;65745;50.278;18.192;2023-06-14T13:53:21;5.10;;;4.50;;
76795;SDS011;65745;50.278;18.192;2023-06-14T13:55:53;6.20;;;5.10;;
76795;SDS011;65745;50.278;18.192;2023-06-14T13:58:25;4.80;;;4.30;;
76795;SDS011;65745;50.278;18.192;2023-06-14T14:00:58;4.60;;;4.20;;
76795;SDS011;65745;50.278;18.192;2023-06-14T14:03:31;5.00;;;4.50;;
76795;SDS011;65745;50.278;18.192;2023-06-14T14:06:03;5.10;;;4.30;;
76795;SDS011;65745;50.278;18.192;2023-06-14T14:08:36;6.00;;;4.90;;
76795;SDS011;65745;50.278;18.192;2023-06-14T14:11:09;5.30;;;4.80;;
76795;SDS011;65745;50.278;18.192;2023-06-14T14:13:41;5.90;;;4.90;;
76795;SDS011;65745;50.278;18.192;2023-06-14T14:16:14;5.60;;;4.50;;
76795;SDS011;65745;50.278;18.192;2023-06-14T14:18:48;5.00;;;4.60;;
76795;SDS011;65745;50.278;18.192;2023-06-14T14:21:20;5.10;;;4.70;;
76795;SDS011;65745;50.278;18.192;2023-06-14T14:23:53;5.10;;;4.60;;
76795;SDS011;65745;50.278;18.192;2023-06-14T14:26:26;7.00;;;5.50;;
76795;SDS011;65745;50.278;18.192;2023-06-14T14:28:59;5.50;;;5.00;;
76795;SDS011;65745;50.278;18.192;2023-06-14T14:31:32;6.40;;;5.30;;
76795;SDS011;65745;50.278;18.192;2023-06-14T14:34:04;5.00;;;4.50;;
76795;SDS011;65745;50.278;18.192;2023-06-14T14:36:36;6.20;;;5.60;;
76795;SDS011;65745;50.278;18.192;2023-06-14T14:39:11;5.60;;;5.10;;
76795;SDS011;65745;50.278;18.192;2023-06-14T14:41:44;5.50;;;5.00;;
76795;SDS011;65745;50.278;18.192;2023-06-14T14:44:16;6.10;;;5.50;;
76795;SDS011;65745;50.278;18.192;2023-06-14T14:46:48;5.50;;;5.00;;
76795;SDS011;65745;50.278;18.192;2023-06-14T14:49:20;5.90;;;5.00;;
76795;SDS011;65745;50.278;18.192;2023-06-14T14:51:53;6.40;;;5.70;;
76795;SDS011;65745;50.278;18.192;2023-06-14T14:54:43;6.20;;;5.60;;
76795;SDS011;65745;50.278;18.192;2023-06-14T14:57:15;6.30;;;5.70;;
76795;SDS011;65745;50.278;18.192;2023-06-14T14:59:47;5.70;;;5.20;;
76795;SDS011;65745;50.278;18.192;2023-06-14T15:02:19;5.80;;;5.30;;
76795;SDS011;65745;50.278;18.192;2023-06-14T15:04:52;5.90;;;5.30;;
76795;SDS011;65745;50.278;18.192;2023-06-14T15:07:26;5.40;;;4.90;;
76795;SDS011;65745;50.278;18.192;2023-06-14T15:09:59;6.10;;;5.40;;
76795;SDS011;65745;50.278;18.192;2023-06-14T15:12:31;5.10;;;4.60;;
76795;SDS011;65745;50.278;18.192;2023-06-14T15:15:05;4.70;;;4.20;;
76795;SDS011;65745;50.278;18.192;2023-06-14T15:17:39;5.70;;;4.30;;
76795;SDS011;65745;50.278;18.192;2023-06-14T15:20:12;4.20;;;3.80;;
76795;SDS011;65745;50.278;18.192;2023-06-14T15:22:45;4.40;;;4.00;;
76795;SDS011;65745;50.278;18.192;2023-06-14T15:25:19;5.00;;;4.00;;
76795;SDS011;65745;50.278;18.192;2023-06-14T15:27:51;4.50;;;4.10;;